Data for 07/29/2014

Time Sea-Level Adjusted Pressure Absolute Pressure Temperature Relative Humidity Dew Point   
(mb) (inHg) (mb) (inHg) (C) (F) (%) (C) (F)
00:05 1025 30.27 854 25.22 19.7 67.5 36 4.5 40.2
00:10 1025 30.27 854 25.22 19.6 67.2 37 4.8 40.6
00:15 1025 30.27 854 25.22 19.4 66.9 38 4.8 40.7
00:20 1025 30.27 854 25.22 19.3 66.7 38 4.7 40.4
00:25 1025 30.27 854 25.22 19.2 66.6 39 5 41.1
00:30 1025 30.27 854 25.22 18.8 65.8 40 5 41
00:35 1025 30.27 854 25.22 18.5 65.4 40 4.8 40.7
00:40 1025 30.27 854 25.22 18.6 65.6 40 5.1 41.1
00:45 1025 30.27 854 25.22 18.3 64.9 42 5.2 41.4
00:50 1025 30.27 854 25.22 17.9 64.2 43 5.3 41.5
00:55 1025 30.27 854 25.22 17.7 63.9 45 5.6 42.1
01:00 1025 30.27 854 25.22 17.8 64 43 5 41
01:05 1025 30.27 854 25.22 17.7 63.9 43 5.1 41.2
01:10 1025 30.27 854 25.22 17.6 63.6 44 5.3 41.6
01:15 1025 30.27 854 25.22 17.7 63.8 42 4.8 40.7
01:20 1024 30.24 854 25.22 18.4 65.1 41 4.9 40.9
01:25 1025 30.27 854 25.22 18.4 65 41 4.9 40.8
01:30 1025 30.27 854 25.22 18.4 65 42 5.2 41.4
01:35 1025 30.27 854 25.22 18.2 64.7 42 5.1 41.2
01:40 1025 30.27 854 25.22 18.1 64.5 41 4.8 40.6
01:45 1025 30.27 854 25.22 18.3 64.9 41 5 41
01:50 1025 30.27 854 25.22 18.3 65 41 4.9 40.8
01:55 1025 30.27 854 25.22 18.5 65.2 41 5.3 41.5
02:00 1025 30.27 854 25.22 18.5 65.2 41 4.9 40.9
02:05 1025 30.27 854 25.22 18.6 65.4 40 5 40.9
02:10 1025 30.27 854 25.22 18.6 65.5 40 5 41
02:15 1025 30.27 854 25.22 18.4 65.1 42 5.2 41.4
02:20 1025 30.27 854 25.22 18.1 64.6 43 5.4 41.7
02:25 1025 30.27 854 25.22 17.7 63.8 44 5.5 41.9
02:30 1025 30.27 854 25.22 17.4 63.3 44 5.3 41.5
02:35 1025 30.27 854 25.22 17.4 63.3 45 5.3 41.6
02:40 1024 30.24 854 25.22 17.4 63.3 45 5.4 41.7
02:45 1025 30.27 854 25.22 17.5 63.4 46 5.7 42.3
02:50 1025 30.27 854 25.22 17.6 63.8 43 5.2 41.3
02:55 1025 30.27 854 25.22 17.8 64.1 43 5.1 41.2
03:00 1025 30.27 854 25.22 17.9 64.2 43 5.3 41.6
03:05 1025 30.27 854 25.22 17.9 64.3 43 5.1 41.2
03:10 1025 30.27 854 25.22 18 64.3 43 5.4 41.7
03:15 1025 30.27 854 25.22 17.8 64 44 5.4 41.7
03:20 1025 30.27 854 25.22 17.6 63.7 44 5.4 41.6
03:25 1025 30.27 854 25.22 17.6 63.7 44 5.4 41.7
03:30 1025 30.27 854 25.22 17.4 63.2 46 5.6 42.1
03:35 1025 30.27 854 25.22 17.1 62.9 46 5.4 41.8
03:40 1025 30.27 854 25.22 17 62.6 46 5.5 42
03:45 1025 30.27 854 25.22 16.9 62.4 46 5.3 41.6
03:50 1025 30.27 854 25.22 17.1 62.7 45 5.2 41.4
03:55 1025 30.27 854 25.22 17.3 63.1 45 5.4 41.6
04:00 1025 30.27 854 25.22 17.1 62.7 46 5.6 42.1
04:05 1025 30.27 854 25.22 16.8 62.3 45 5.1 41.2
04:10 1025 30.27 854 25.22 17.2 63 44 5.1 41.1
04:15 1025 30.27 854 25.22 17.4 63.4 44 5.1 41.2
04:20 1025 30.27 854 25.22 17.4 63.3 44 5.2 41.4
04:25 1025 30.27 854 25.22 17.3 63.2 44 5.2 41.3
04:30 1025 30.27 854 25.22 16.7 62 47 5.3 41.5
04:35 1025 30.27 854 25.22 16.7 62.1 46 5.1 41.1
04:40 1025 30.27 854 25.22 16.7 62 46 5.1 41.1
04:45 1025 30.27 854 25.22 16.8 62.3 46 5.3 41.6
04:50 1025 30.27 854 25.22 16.8 62.3 46 5.3 41.5
04:55 1025 30.27 854 25.22 17.3 63.2 46 5.6 42.1
05:00 1025 30.27 854 25.22 17.2 63 46 5.5 41.9
05:05 1025 30.27 854 25.22 17.5 63.6 45 5.7 42.3
05:10 1025 30.27 854 25.22 17.1 62.9 50 6.6 44
05:15 1025 30.27 854 25.22 16.5 61.7 49 5.8 42.4
05:20 1025 30.27 854 25.22 16.4 61.4 50 6 42.9
05:25 1025 30.27 854 25.22 15.9 60.7 52 6.2 43.2
05:30 1025 30.27 854 25.22 15.5 60 54 6.3 43.4
05:35 1025 30.27 854 25.22 15.9 60.6 52 6 42.9
05:40 1025 30.27 854 25.22 16.6 61.9 50 6.1 43
05:45 1025 30.27 854 25.22 17.8 64 46 6.1 43.1
05:50 1025 30.27 854 25.22 18.3 64.9 44 6 42.8
05:55 1025 30.27 854 25.22 18.5 65.4 43 5.8 42.4
06:00 1025 30.27 854 25.22 18.7 65.7 42 5.5 42
06:05 1025 30.27 854 25.22 18.9 65.9 41 5.6 42.1
06:10 1025 30.27 854 25.22 18.9 65.9 41 5.4 41.7
06:15 1025 30.27 854 25.22 18.9 66.1 41 5.4 41.7
06:20 1025 30.27 854 25.22 19 66.1 41 5.4 41.7
06:25 1025 30.27 854 25.22 18.9 66.1 40 5.3 41.6
06:30 1025 30.27 854 25.22 19 66.2 40 5.1 41.2
06:35 1025 30.27 854 25.22 19.1 66.3 39 5.1 41.1
06:40 1025 30.27 854 25.22 19.1 66.3 40 5.2 41.4
06:45 1025 30.27 854 25.22 19 66.3 40 5.1 41.2
06:50 1025 30.27 854 25.22 19.1 66.4 39 5.1 41.2
06:55 1025 30.27 854 25.22 19.1 66.4 40 5.3 41.5
07:00 1025 30.27 854 25.22 19.1 66.4 40 5.3 41.5
07:05 1025 30.27 854 25.22 19.2 66.6 39 5.2 41.3
07:10 1025 30.27 854 25.22 19.3 66.7 39 5.2 41.4
07:15 1025 30.27 854 25.22 19.5 67 39 5.4 41.7
07:20 1025 30.27 854 25.22 19.4 67 39 5.2 41.3
07:25 1025 30.27 854 25.22 19.6 67.2 38 5.1 41.2
07:30 1025 30.27 854 25.22 19.7 67.5 38 5.1 41.2
07:35 1025 30.27 854 25.22 19.9 67.8 38 5.4 41.7
07:40 1025 30.27 854 25.22 20 68 37 5.2 41.3
07:45 1025 30.27 855 25.25 20.2 68.3 38 5.4 41.7
07:50 1025 30.27 855 25.25 20.3 68.5 38 5.5 42
07:55 1025 30.27 854 25.22 20.4 68.6 37 5.4 41.7
08:00 1025 30.27 855 25.25 20.7 69.2 36 5.4 41.7
08:05 1025 30.27 855 25.25 21 69.7 36 5.3 41.6
08:10 1025 30.27 855 25.25 21 69.7 36 5.6 42.1
08:15 1025 30.27 855 25.25 21 69.8 35 5.1 41.2
08:20 1025 30.27 855 25.25 21.1 70 36 5.6 42
08:25 1025 30.27 855 25.25 21.3 70.4 35 5.6 42.1
08:30 1025 30.27 855 25.25 21.6 70.8 35 5.4 41.8
08:35 1025 30.27 855 25.25 21.9 71.3 34 5.3 41.6
08:40 1025 30.27 855 25.25 22 71.6 34 5.5 42
08:45 1025 30.27 855 25.25 22 71.6 34 5.5 41.9
08:50 1025 30.27 855 25.25 22 71.5 34 5.5 41.9
08:55 1025 30.27 855 25.25 22.1 71.8 33 5.5 41.9
09:00 1025 30.27 854 25.22 22.7 72.9 32 5.5 41.9
09:05 1025 30.27 854 25.22 22.9 73.2 32 5.4 41.7
09:10 1025 30.27 854 25.22 22.9 73.2 33 5.9 42.6
09:15 1025 30.27 854 25.22 23.1 73.7 33 6 42.9
09:20 1025 30.27 854 25.22 23 73.4 32 5.6 42.1
09:25 1025 30.27 854 25.22 22.9 73.2 32 5.7 42.2
09:30 1025 30.27 854 25.22 22.9 73.2 33 5.9 42.6
09:35 1025 30.27 854 25.22 23.3 74 32 5.7 42.3
09:40 1025 30.27 854 25.22 23.7 74.6 32 6.2 43.2
09:45 1025 30.27 854 25.22 23.6 74.5 32 6.1 42.9
09:50 1025 30.27 854 25.22 23.5 74.3 31 5.8 42.4
09:55 1025 30.27 854 25.22 23.8 74.8 31 5.9 42.7
10:00 1025 30.27 854 25.22 23.9 75.1 31 6 42.8
10:05 1025 30.27 854 25.22 24.3 75.7 31 6.1 42.9
10:10 1025 30.27 854 25.22 24.7 76.4 29 5.9 42.6
10:15 1025 30.27 854 25.22 24.5 76.1 30 5.9 42.7
10:20 1025 30.27 854 25.22 24.6 76.3 31 6.4 43.5
10:25 1025 30.27 854 25.22 25 77 30 6.3 43.3
10:30 1025 30.27 854 25.22 25.2 77.4 30 6.5 43.7
10:35 1025 30.27 854 25.22 25.7 78.3 29 6.4 43.5
10:40 1025 30.27 854 25.22 26.3 79.4 28 6.6 43.9
10:45 1025 30.27 854 25.22 25.6 78.1 28 6 42.7
10:50 1025 30.27 854 25.22 25.9 78.6 27 5.9 42.7
10:55 1025 30.27 854 25.22 26 78.8 28 6.2 43.2
11:00 1025 30.27 854 25.22 25.8 78.5 28 6.2 43.2
11:05 1025 30.27 854 25.22 25.7 78.3 28 6.3 43.3
11:10 1025 30.27 854 25.22 26.2 79.2 28 6.6 43.8
11:15 1025 30.27 854 25.22 26.1 78.9 28 6.3 43.3
11:20 1025 30.27 854 25.22 25.9 78.6 27 5.7 42.3
11:25 1025 30.27 854 25.22 26.2 79.2 26 5.7 42.3
11:30 1025 30.27 854 25.22 25.9 78.6 28 6.2 43.2
11:35 1025 30.27 854 25.22 26.1 78.9 26 5.4 41.8
11:40 1025 30.27 854 25.22 26.3 79.3 26 5.7 42.2
11:45 1025 30.27 854 25.22 26.8 80.3 25 5.7 42.3
11:50 1025 30.27 854 25.22 26.8 80.2 26 6 42.9
11:55 1025 30.27 854 25.22 26.7 80 26 6 42.8
12:00 1024 30.24 854 25.22 27.5 81.5 25 6.2 43.1
12:05 1024 30.24 854 25.22 27.8 82 24 5.5 42
12:10 1024 30.24 853 25.19 27.4 81.4 25 5.7 42.3
12:15 1024 30.24 853 25.19 27.5 81.4 25 6 42.9
12:20 1024 30.24 853 25.19 27.3 81.1 25 5.8 42.5
12:25 1024 30.24 853 25.19 27.4 81.3 24 5.5 41.9
12:30 1024 30.24 853 25.19 28.1 82.5 24 5.7 42.2
12:35 1024 30.24 853 25.19 28 82.4 23 5.2 41.4
12:40 1024 30.24 853 25.19 28 82.4 23 5.2 41.3
12:45 1024 30.24 853 25.19 28.1 82.5 23 5.5 41.9
12:50 1024 30.24 853 25.19 28.3 83 23 5.3 41.6
12:55 1024 30.24 853 25.19 28.1 82.6 23 5.4 41.7
13:00 1024 30.24 853 25.19 28.4 83.2 21 4.5 40.1
13:05 1024 30.24 853 25.19 28.7 83.6 22 5.2 41.4
13:10 1024 30.24 853 25.19 28.3 83 23 5.5 41.8
13:15 1024 30.24 853 25.19 28.5 83.2 22 4.9 40.8
13:20 1024 30.24 853 25.19 28.5 83.2 22 5.1 41.1
13:25 1024 30.24 853 25.19 29 84.2 21 4.9 40.7
13:30 1024 30.24 853 25.19 29.2 84.6 20 4.5 40.1
13:35 1024 30.24 853 25.19 28.9 84 21 4.9 40.8
13:40 1024 30.24 853 25.19 29 84.1 21 4.9 40.8
13:45 1024 30.24 853 25.19 29.4 85 20 4.1 39.4
13:50 1024 30.24 853 25.19 29.5 85.2 20 4.8 40.7
13:55 1024 30.24 853 25.19 29.6 85.3 20 4.7 40.4
14:00 1024 30.24 853 25.19 29 84.1 21 4.5 40.1
14:05 1024 30.24 853 25.19 28.3 82.9 22 4.6 40.2
14:10 1023 30.21 853 25.19 28.5 83.3 21 4.2 39.6
14:15 1023 30.21 853 25.19 28.4 83.2 22 5 41
14:20 1023 30.21 853 25.19 28.2 82.8 23 5.1 41.2
14:25 1024 30.24 853 25.19 27.6 81.6 29 8.2 46.8
14:30 1024 30.24 853 25.19 26 78.7 33 8.8 47.8
14:35 1024 30.24 853 25.19 24.4 75.9 30 6 42.9
14:40 1024 30.24 853 25.19 24.4 76 36 8.4 47.2
14:45 1024 30.24 853 25.19 24 75.2 38 9.1 48.3
14:50 1024 30.24 854 25.22 22.8 73 53 12.9 55.2
14:55 1025 30.27 854 25.22 21.1 70 42 7.9 46.2
15:00 1024 30.24 853 25.19 20.8 69.4 46 9 48.1
15:05 1024 30.24 853 25.19 21.4 70.4 41 7.8 46
15:10 1024 30.24 853 25.19 21.6 70.9 39 7.4 45.3
15:15 1024 30.24 853 25.19 22 71.7 37 6.8 44.2
15:20 1024 30.24 853 25.19 22.5 72.4 38 7.6 45.6
15:25 1024 30.24 853 25.19 22.9 73.1 33 6 42.7
15:30 1024 30.24 853 25.19 23.3 74 43 10.1 50.2
15:35 1024 30.24 853 25.19 23.7 74.6 41 9.8 49.6
15:40 1024 30.24 853 25.19 24.2 75.5 33 6.9 44.5
15:45 1024 30.24 853 25.19 24 75.3 38 9 48.2
15:50 1024 30.24 853 25.19 23.6 74.4 41 9.7 49.4
15:55 1024 30.24 853 25.19 24 75.2 41 10.2 50.4
16:00 1024 30.24 853 25.19 24.8 76.6 39 10.1 50.2
16:05 1024 30.24 853 25.19 25.2 77.3 34 8.3 47
16:10 1024 30.24 853 25.19 25.8 78.4 33 8.5 47.2
16:15 1023 30.21 853 25.19 26 78.8 31 8 46.4
16:20 1023 30.21 853 25.19 26.3 79.3 29 7.2 44.9
16:25 1023 30.21 853 25.19 26.4 79.5 30 7.6 45.7
16:30 1023 30.21 853 25.19 26.8 80.2 27 6.7 44.1
16:35 1023 30.21 852 25.16 26.8 80.3 24 5.1 41.2
16:40 1023 30.21 852 25.16 26.9 80.5 24 4.9 40.9
16:45 1023 30.21 852 25.16 27.1 80.8 24 4.8 40.6
16:50 1023 30.21 852 25.16 27.3 81.1 26 6.2 43.2
16:55 1023 30.21 852 25.16 27.2 81 22 4 39.3
17:00 1023 30.21 852 25.16 27.2 80.9 23 4.7 40.4
17:05 1023 30.21 852 25.16 27 80.6 24 4.8 40.6
17:10 1023 30.21 852 25.16 26.9 80.3 24 5.1 41.2
17:15 1023 30.21 852 25.16 26.8 80.2 25 5.3 41.6
17:20 1023 30.21 852 25.16 26.7 80 26 5.6 42.2
17:25 1023 30.21 852 25.16 26.5 79.7 26 5.4 41.8
17:30 1023 30.21 852 25.16 26.3 79.4 26 5.8 42.4
17:35 1023 30.21 852 25.16 26.5 79.6 26 5.8 42.4
17:40 1023 30.21 852 25.16 26.7 80.1 25 5.3 41.6
17:45 1023 30.21 852 25.16 26.9 80.4 25 5.4 41.7
17:50 1023 30.21 852 25.16 26.8 80.3 26 6.1 42.9
17:55 1023 30.21 852 25.16 26.7 80.1 26 5.7 42.3
18:00 1023 30.21 852 25.16 26.9 80.4 26 5.8 42.4
18:05 1023 30.21 852 25.16 26.7 80.1 25 5.6 42.1
18:10 1023 30.21 852 25.16 26.4 79.6 26 5.5 41.9
18:15 1023 30.21 852 25.16 26.1 79 26 5.7 42.2
18:20 1023 30.21 852 25.16 26 78.8 27 6 42.8
18:25 1023 30.21 852 25.16 25.9 78.6 28 6.4 43.4
18:30 1023 30.21 852 25.16 25.8 78.5 28 6 42.8
18:35 1023 30.21 852 25.16 25.8 78.4 28 6 42.9
18:40 1023 30.21 852 25.16 25.7 78.2 27 5.6 42.1
18:45 1023 30.21 852 25.16 25.6 78 27 5.4 41.8
18:50 1023 30.21 852 25.16 25.5 77.9 27 5.6 42.2
18:55 1023 30.21 852 25.16 25.3 77.5 28 5.6 42
19:00 1023 30.21 852 25.16 25.1 77.2 28 5.5 41.8
19:05 1023 30.21 852 25.16 25.1 77.1 28 5.6 42.1
19:10 1023 30.21 852 25.16 25 76.9 28 5.3 41.5
19:15 1023 30.21 852 25.16 24.9 76.7 29 5.7 42.3
19:20 1023 30.21 852 25.16 24.7 76.4 29 5.7 42.2
19:25 1023 30.21 852 25.16 24.5 76.2 29 5.7 42.3
19:30 1023 30.21 853 25.19 24.5 76.1 29 5.7 42.2
19:35 1023 30.21 853 25.19 24.4 75.9 29 5.5 42
19:40 1023 30.21 853 25.19 24.3 75.7 30 5.9 42.7
19:45 1023 30.21 853 25.19 24.2 75.5 30 5.8 42.4
19:50 1024 30.24 853 25.19 24 75.1 30 5.6 42
19:55 1024 30.24 853 25.19 23.9 75 31 5.8 42.4
20:00 1024 30.24 853 25.19 23.7 74.6 31 5.8 42.4
20:05 1024 30.24 853 25.19 23.5 74.4 31 5.8 42.5
20:10 1024 30.24 853 25.19 23.4 74.1 32 6 42.9
20:15 1024 30.24 853 25.19 23.2 73.7 33 6 42.9
20:20 1024 30.24 853 25.19 23.1 73.6 33 6.1 42.9
20:25 1024 30.24 853 25.19 23 73.4 33 6.2 43.2
20:30 1024 30.24 853 25.19 22.9 73.1 34 6.5 43.6
20:35 1024 30.24 853 25.19 22.6 72.6 34 6.3 43.4
20:40 1024 30.24 853 25.19 22.6 72.6 34 6.1 43
20:45 1024 30.24 853 25.19 22.6 72.6 34 6 42.8
20:50 1024 30.24 853 25.19 22.6 72.7 34 6.3 43.4
20:55 1024 30.24 853 25.19 22.3 72.2 35 6.5 43.7
21:00 1024 30.24 853 25.19 22.1 71.8 36 6.5 43.8
21:05 1024 30.24 853 25.19 22.1 71.7 36 6.4 43.4
21:10 1024 30.24 853 25.19 22.1 71.7 35 5.9 42.6
21:15 1024 30.24 853 25.19 22 71.6 35 6.2 43.1
21:20 1024 30.24 853 25.19 21.8 71.2 37 6.4 43.6
21:25 1024 30.24 853 25.19 21.7 71.1 35 5.9 42.6
21:30 1024 30.24 853 25.19 21.9 71.3 35 6 42.9
21:35 1024 30.24 853 25.19 21.8 71.2 35 5.8 42.5
21:40 1024 30.24 853 25.19 21.8 71.3 34 5.5 41.9
21:45 1024 30.24 853 25.19 21.9 71.4 34 5.4 41.8
21:50 1024 30.24 853 25.19 21.8 71.3 34 5.7 42.2
21:55 1024 30.24 853 25.19 21.7 71.1 35 6 42.7
22:00 1024 30.24 853 25.19 21.5 70.8 35 5.7 42.2
22:05 1024 30.24 853 25.19 21.5 70.6 36 6 42.8
22:10 1024 30.24 853 25.19 21.2 70.2 39 6.9 44.5
22:15 1024 30.24 853 25.19 21.1 69.9 36 5.6 42.1
22:20 1024 30.24 853 25.19 21.2 70.1 36 5.5 41.9
22:25 1024 30.24 853 25.19 21.2 70.2 35 5.3 41.5
22:30 1024 30.24 854 25.22 21.2 70.2 35 5.4 41.7
22:35 1024 30.24 854 25.22 21.2 70.1 35 5.3 41.5
22:40 1024 30.24 854 25.22 21.2 70.2 35 5.4 41.7
22:45 1024 30.24 854 25.22 21.1 70 36 5.4 41.8
22:50 1024 30.24 854 25.22 21 69.8 36 5.7 42.2
22:55 1024 30.24 854 25.22 20.8 69.5 37 5.6 42.1
23:00 1025 30.27 854 25.22 20.9 69.6 36 5.6 42.1
23:05 1025 30.27 854 25.22 21 69.8 37 5.8 42.5
23:10 1025 30.27 854 25.22 21 69.7 37 5.9 42.5
23:15 1025 30.27 854 25.22 21 69.8 37 5.9 42.6
23:20 1025 30.27 854 25.22 20.9 69.6 37 6 42.8
23:25 1025 30.27 854 25.22 20.9 69.6 37 6 42.7
23:30 1025 30.27 854 25.22 20.8 69.4 38 6.2 43.1
23:35 1025 30.27 854 25.22 20.7 69.3 38 6.2 43.2
23:40 1025 30.27 854 25.22 20.5 68.9 41 7 44.6
23:45 1025 30.27 854 25.22 19.7 67.5 43 7 44.7
23:50 1025 30.27 854 25.22 19.3 66.7 46 7.6 45.8
23:55 1025 30.27 854 25.22 18.5 65.2 47 7 44.6
24:00 1025 30.27 854 25.22 18.2 64.7 47 6.9 44.5